Time;durP1;ratioP1;P1;durP2;ratioP2;P2;SDS_P1;SDS_P2;PMS_P1;PMS_P2;Temp;Humidity;BMP_temperature;BMP_pressure;BME280_temperature;BME280_humidity;BME280_pressure;Samples;Min_cycle;Max_cycle;Signal;HPM_P1;HPM_P2
2022/06/24 00:00:29;;;;;;;4.57;3.85;;;;;;;18.70;100.00;98081.50;5035068;28;20197;-58
2022/06/24 00:02:55;;;;;;;5.13;3.85;;;;;;;18.72;100.00;98078.75;5035460;28;20169;-57
2022/06/24 00:05:20;;;;;;;5.32;3.60;;;;;;;18.74;100.00;98082.00;5035187;28;20185;-57
2022/06/24 00:07:53;;;;;;;4.95;3.92;;;;;;;18.72;100.00;98078.75;5035122;28;20556;-58
2022/06/24 00:10:22;;;;;;;4.47;3.83;;;;;;;18.77;100.00;98086.94;5035081;28;20231;-58
2022/06/24 00:12:49;;;;;;;6.00;3.47;;;;;;;18.73;100.00;98081.19;5035046;28;20173;-58
2022/06/24 00:15:14;;;;;;;4.82;3.95;;;;;;;18.81;100.00;98094.28;5035126;28;20284;-58
2022/06/24 00:17:40;;;;;;;4.72;3.83;;;;;;;18.90;100.00;98095.94;5034940;28;20706;-58
2022/06/24 00:20:08;;;;;;;7.20;3.85;;;;;;;19.03;100.00;98096.25;5034910;28;20178;-58
2022/06/24 00:22:50;;;;;;;10.27;3.88;;;;;;;18.98;100.00;98080.19;5034830;28;20208;-58
2022/06/24 00:25:22;;;;;;;8.10;4.10;;;;;;;19.03;100.00;98071.81;5034828;28;20189;-58
2022/06/24 00:28:05;;;;;;;5.15;3.90;;;;;;;18.98;100.00;98059.22;5034997;28;20182;-58
2022/06/24 00:30:40;;;;;;;4.40;4.00;;;;;;;18.96;100.00;98071.69;5035232;28;20166;-58
2022/06/24 00:33:13;;;;;;;5.13;3.78;;;;;;;19.00;100.00;98067.72;5034893;28;20263;-58
2022/06/24 00:35:47;;;;;;;7.40;3.33;;;;;;;18.96;100.00;98076.09;5034717;28;20677;-58
2022/06/24 00:38:26;;;;;;;6.63;3.70;;;;;;;18.78;100.00;98068.41;5034833;28;20162;-58
2022/06/24 00:40:55;;;;;;;4.05;3.75;;;;;;;18.68;100.00;98062.53;5035090;28;20633;-58
2022/06/24 00:43:32;;;;;;;8.20;4.20;;;;;;;18.52;100.00;98061.69;5034440;28;20193;-58
2022/06/24 00:46:03;;;;;;;4.38;3.70;;;;;;;18.40;100.00;98057.72;5034687;28;20185;-58
2022/06/24 00:48:30;;;;;;;5.47;3.85;;;;;;;18.35;100.00;98060.84;5034615;28;20174;-58
2022/06/24 00:50:56;;;;;;;4.10;3.67;;;;;;;18.39;100.00;98056.94;5035080;28;20239;-58
2022/06/24 00:53:22;;;;;;;4.88;4.38;;;;;;;18.39;100.00;98053.47;5034284;28;20178;-58
2022/06/24 00:55:48;;;;;;;4.75;4.22;;;;;;;18.34;100.00;98043.50;5034458;28;20193;-58
2022/06/24 00:58:16;;;;;;;6.28;4.35;;;;;;;18.44;100.00;98056.44;5034222;28;20186;-58
2022/06/24 01:00:49;;;;;;;8.20;4.47;;;;;;;18.45;100.00;98050.22;5034114;28;20217;-58
2022/06/24 01:03:15;;;;;;;7.28;4.07;;;;;;;18.52;100.00;98057.28;5034373;28;20638;-58
2022/06/24 01:05:43;;;;;;;7.10;4.30;;;;;;;18.53;100.00;98063.34;5034018;28;20174;-58
2022/06/24 01:08:11;;;;;;;6.60;4.97;;;;;;;18.50;100.00;98047.94;5033974;28;20240;-58
2022/06/24 01:10:38;;;;;;;6.65;4.00;;;;;;;18.48;100.00;98063.81;5034257;28;20580;-58
2022/06/24 01:13:10;;;;;;;6.40;3.60;;;;;;;18.50;100.00;98064.47;5034172;28;20629;-58
2022/06/24 01:15:36;;;;;;;7.28;3.95;;;;;;;18.53;100.00;98063.34;5033836;28;20196;-58
2022/06/24 01:18:01;;;;;;;7.65;3.83;;;;;;;18.51;100.00;98070.53;5032557;28;20181;-58
2022/06/24 01:20:27;;;;;;;4.50;4.10;;;;;;;18.57;100.00;98069.88;5033699;28;20174;-58
2022/06/24 01:22:52;;;;;;;8.13;4.00;;;;;;;18.67;100.00;98070.53;5032514;28;20280;-57
2022/06/24 01:25:18;;;;;;;7.03;4.10;;;;;;;18.70;100.00;98076.28;5033864;28;20182;-58
2022/06/24 01:27:43;;;;;;;6.65;3.90;;;;;;;18.74;100.00;98072.34;5033623;28;20181;-58
2022/06/24 01:30:09;;;;;;;7.30;3.90;;;;;;;18.71;100.00;98083.16;5033594;28;20661;-58
2022/06/24 01:32:35;;;;;;;6.72;3.88;;;;;;;18.80;100.00;98090.03;5033485;28;20694;-58
2022/06/24 01:35:01;;;;;;;3.63;2.85;;;;;;;18.61;100.00;98086.91;5033671;28;20285;-58
2022/06/24 01:37:26;;;;;;;3.45;3.15;;;;;;;18.53;100.00;98085.09;5033415;28;20169;-58
2022/06/24 01:39:51;;;;;;;8.15;3.40;;;;;;;18.35;100.00;98057.41;5033877;28;20256;-58
2022/06/24 01:42:17;;;;;;;4.63;4.22;;;;;;;18.62;100.00;98093.78;5033368;28;20181;-58
2022/06/24 01:44:42;;;;;;;4.20;3.75;;;;;;;18.63;100.00;98091.03;5033323;28;20174;-58
2022/06/24 01:47:08;;;;;;;7.82;3.80;;;;;;;18.60;100.00;98087.91;5033765;28;20186;-58
2022/06/24 01:49:34;;;;;;;6.57;3.70;;;;;;;18.47;100.00;98079.72;5033444;28;20260;-58
2022/06/24 01:51:59;;;;;;;3.90;3.55;;;;;;;18.46;100.00;98081.50;5031883;28;20665;-58
2022/06/24 01:54:26;;;;;;;3.83;3.13;;;;;;;18.48;100.00;98091.81;5033109;28;20180;-58
2022/06/24 01:56:53;;;;;;;4.88;3.88;;;;;;;18.46;100.00;98093.75;5032999;28;20198;-58
2022/06/24 01:59:19;;;;;;;4.25;3.85;;;;;;;18.39;100.00;98090.16;5033242;28;20261;-58
2022/06/24 02:01:44;;;;;;;8.02;3.67;;;;;;;18.57;100.00;98086.44;5015046;28;20332;-58
2022/06/24 02:04:10;;;;;;;6.72;3.60;;;;;;;18.64;100.00;98084.78;5033194;28;20252;-58
2022/06/24 02:06:36;;;;;;;4.15;3.47;;;;;;;18.75;100.00;98088.88;5032900;28;20187;-58
2022/06/24 02:09:01;;;;;;;5.07;3.53;;;;;;;18.81;100.00;98088.22;5032823;28;20654;-58
2022/06/24 02:14:13;;;;;;;9.30;3.33;;;;;;;18.93;100.00;98086.91;5033364;28;20201;-58
2022/06/24 02:16:39;;;;;;;7.28;3.35;;;;;;;18.99;100.00;98088.88;5032026;28;20197;-58
2022/06/24 02:19:05;;;;;;;4.78;3.78;;;;;;;18.95;100.00;98090.22;5032674;28;20623;-58
2022/06/24 02:21:31;;;;;;;5.10;3.72;;;;;;;18.77;100.00;98087.72;5032907;28;20174;-58
2022/06/24 02:23:56;;;;;;;4.32;3.60;;;;;;;18.66;100.00;98090.69;5032818;28;20178;-58
2022/06/24 02:26:22;;;;;;;4.75;3.78;;;;;;;18.73;100.00;98093.47;5031404;28;20165;-58
2022/06/24 02:28:48;;;;;;;4.47;4.07;;;;;;;18.48;100.00;98086.59;5032774;28;20188;-58
2022/06/24 02:31:14;;;;;;;8.85;4.57;;;;;;;18.54;100.00;98091.97;5032493;28;20584;-58
2022/06/24 02:33:39;;;;;;;7.68;4.82;;;;;;;18.67;100.00;98087.09;5032752;28;20177;-58
2022/06/24 02:36:05;;;;;;;11.57;5.65;;;;;;;18.67;100.00;98076.63;5032304;28;20205;-58
2022/06/24 02:38:32;;;;;;;9.35;5.00;;;;;;;18.62;100.00;98068.41;5032364;28;20182;-58
2022/06/24 02:40:58;;;;;;;5.93;4.40;;;;;;;18.59;100.00;98078.41;5032289;28;20174;-58
2022/06/24 02:43:35;;;;;;;6.68;4.72;;;;;;;18.60;100.00;98072.19;5032292;28;20184;-58
2022/06/24 02:46:05;;;;;;;7.32;4.95;;;;;;;18.62;100.00;98067.59;5032582;28;20169;-58
2022/06/24 02:48:33;;;;;;;9.70;5.18;;;;;;;18.46;100.00;98067.56;5032516;28;20174;-58
2022/06/24 02:51:01;;;;;;;7.40;5.05;;;;;;;18.42;100.00;98069.69;5032221;28;20180;-58
2022/06/24 02:53:28;;;;;;;7.45;5.00;;;;;;;18.51;100.00;98071.34;5032433;28;20201;-58
2022/06/24 02:55:58;;;;;;;8.73;4.88;;;;;;;18.71;100.00;98084.97;5032329;28;20206;-58
2022/06/24 02:58:23;;;;;;;5.53;4.22;;;;;;;18.78;100.00;98083.31;5032451;28;20680;-58
2022/06/24 03:00:50;;;;;;;5.53;4.30;;;;;;;18.83;100.00;98081.84;5031992;28;20217;-58
2022/06/24 03:03:18;;;;;;;4.80;4.40;;;;;;;18.96;100.00;98103.16;5032291;28;20177;-58
2022/06/24 03:05:44;;;;;;;8.25;4.97;;;;;;;19.04;100.00;98099.69;5032016;28;20253;-58
2022/06/24 03:08:12;;;;;;;5.50;4.78;;;;;;;19.02;100.00;98093.81;5031976;28;20178;-58
2022/06/24 03:10:39;;;;;;;6.57;4.05;;;;;;;19.05;100.00;98091.66;5032010;28;20201;-58
2022/06/24 03:13:04;;;;;;;6.93;4.70;;;;;;;18.89;100.00;98083.00;5032161;28;20182;-58
2022/06/24 03:15:30;;;;;;;4.68;4.07;;;;;;;19.01;100.00;98085.09;5031895;28;20582;-58
2022/06/24 03:17:56;;;;;;;6.43;4.10;;;;;;;19.13;100.00;98077.72;5031941;28;20173;-58
2022/06/24 03:20:21;;;;;;;7.05;4.07;;;;;;;19.15;100.00;98086.25;5032123;28;20626;-58
2022/06/24 03:22:47;;;;;;;6.15;3.70;;;;;;;19.22;100.00;98088.06;5031903;28;20236;-58
2022/06/24 03:25:12;;;;;;;6.60;3.47;;;;;;;19.26;100.00;98099.03;5031787;28;20174;-58
2022/06/24 03:27:38;;;;;;;6.70;3.70;;;;;;;19.22;100.00;98097.72;5032686;28;20256;-58
2022/06/24 03:30:06;;;;;;;8.43;3.95;;;;;;;19.11;100.00;98101.50;5036076;28;20178;-58
2022/06/24 03:32:32;;;;;;;7.22;4.43;;;;;;;19.04;100.00;98104.94;5035970;28;20209;-58
2022/06/24 03:34:57;;;;;;;5.32;3.75;;;;;;;19.09;100.00;98107.88;5035696;28;20285;-58
2022/06/24 03:37:23;;;;;;;7.88;4.53;;;;;;;18.95;100.00;98108.56;5034452;28;20641;-58
2022/06/24 03:39:48;;;;;;;7.50;4.25;;;;;;;18.99;100.00;98104.59;5035701;28;20261;-58
2022/06/24 03:42:14;;;;;;;9.25;3.40;;;;;;;18.95;100.00;98098.06;5035638;28;20186;-58
2022/06/24 03:44:39;;;;;;;4.13;3.60;;;;;;;19.01;100.00;98105.28;5035852;28;20174;-58
2022/06/24 03:47:04;;;;;;;4.40;3.15;;;;;;;18.98;100.00;98098.56;5035770;28;20182;-58
2022/06/24 03:49:30;;;;;;;5.00;3.20;;;;;;;19.05;100.00;98103.97;5035492;28;20638;-58
2022/06/24 03:51:55;;;;;;;4.53;3.15;;;;;;;19.08;100.00;98095.75;5035423;28;20602;-58
2022/06/24 03:54:22;;;;;;;3.65;3.25;;;;;;;19.06;100.00;98092.50;5035417;28;20189;-58
2022/06/24 03:56:47;;;;;;;6.80;3.60;;;;;;;19.12;100.00;98110.19;5035275;28;20796;-58
2022/06/24 03:59:13;;;;;;;4.43;2.97;;;;;;;19.03;100.00;98087.56;5035322;28;20295;-58
2022/06/24 04:01:38;;;;;;;5.60;3.30;;;;;;;19.10;100.00;98099.03;5035059;28;20214;-58
2022/06/24 04:04:04;;;;;;;3.65;3.17;;;;;;;19.15;100.00;98101.97;5035211;28;20216;-57
2022/06/24 04:06:30;;;;;;;4.47;3.40;;;;;;;19.15;100.00;98104.59;5035157;28;20176;-57
2022/06/24 04:08:56;;;;;;;4.22;3.05;;;;;;;19.06;100.00;98109.03;5035113;28;20174;-57
2022/06/24 04:11:22;;;;;;;4.13;3.83;;;;;;;19.11;100.00;98100.69;5036028;28;20182;-62
2022/06/24 04:13:47;;;;;;;6.47;3.80;;;;;;;19.12;100.00;98099.69;5035032;28;20235;-58
2022/06/24 04:16:13;;;;;;;6.50;3.22;;;;;;;19.07;100.00;98108.03;5034944;28;20205;-58
2022/06/24 04:18:38;;;;;;;3.38;3.08;;;;;;;19.02;100.00;98104.28;5034966;28;20193;-58
2022/06/24 04:21:14;;;;;;;6.57;3.40;;;;;;;19.00;100.00;98116.75;5034858;28;20211;-58
2022/06/24 04:23:40;;;;;;;5.22;3.00;;;;;;;18.95;100.00;98108.56;5035178;28;20180;-58
2022/06/24 04:26:06;;;;;;;5.97;3.45;;;;;;;19.02;100.00;98099.88;5035070;28;20205;-58
2022/06/24 04:28:32;;;;;;;4.82;4.28;;;;;;;19.06;100.00;98098.53;5035088;28;20188;-58
2022/06/24 04:30:57;;;;;;;6.60;4.13;;;;;;;19.15;100.00;98081.00;5035014;28;20617;-58
2022/06/24 04:33:23;;;;;;;3.58;3.28;;;;;;;19.19;100.00;98079.69;5034618;28;20265;-58
2022/06/24 04:35:48;;;;;;;3.90;3.40;;;;;;;19.13;100.00;98077.72;5034577;28;20198;-58
2022/06/24 04:38:14;;;;;;;4.00;2.97;;;;;;;19.03;100.00;98085.78;5034600;28;20340;-58
2022/06/24 04:40:40;;;;;;;3.88;3.53;;;;;;;18.99;100.00;98075.75;5034190;28;20212;-58
2022/06/24 04:43:06;;;;;;;3.85;3.13;;;;;;;19.07;100.00;98091.50;5034572;28;20205;-58
2022/06/24 04:45:31;;;;;;;6.90;3.20;;;;;;;19.15;99.72;98081.81;5034360;28;20228;-58
2022/06/24 04:47:57;;;;;;;2.75;2.55;;;;;;;19.25;98.37;98077.25;5034698;28;20178;-58
2022/06/24 04:50:23;;;;;;;3.58;2.80;;;;;;;19.24;97.59;98069.53;5034614;28;20187;-58
2022/06/24 04:52:48;;;;;;;4.15;2.70;;;;;;;19.25;97.19;98068.56;5034631;28;20316;-58
2022/06/24 04:55:14;;;;;;;2.28;2.08;;;;;;;19.49;93.64;98079.00;5034223;28;20218;-58
2022/06/24 04:57:39;;;;;;;7.97;3.03;;;;;;;19.58;95.29;98083.25;5034534;28;20265;-58
2022/06/24 05:00:06;;;;;;;4.90;3.53;;;;;;;19.69;97.06;98069.75;5034254;28;20196;-58
2022/06/24 05:02:31;;;;;;;3.90;2.50;;;;;;;19.78;94.48;98076.59;5034360;28;20200;-58
2022/06/24 05:04:57;;;;;;;5.72;2.60;;;;;;;19.89;95.79;98073.59;5034126;28;20170;-58
2022/06/24 05:07:22;;;;;;;3.95;2.70;;;;;;;19.95;94.55;98063.22;5034042;28;20178;-58
2022/06/24 05:09:48;;;;;;;4.55;3.15;;;;;;;20.07;98.17;98069.78;5032761;28;20185;-58
2022/06/24 05:12:13;;;;;;;5.95;3.40;;;;;;;20.15;99.41;98063.63;5033930;28;20732;-58
2022/06/24 05:14:39;;;;;;;4.63;3.03;;;;;;;20.30;97.33;98061.91;5033948;28;20780;-58
2022/06/24 05:17:04;;;;;;;3.95;3.63;;;;;;;20.45;97.39;98074.13;5034379;28;20182;-58
2022/06/24 05:19:30;;;;;;;3.08;2.88;;;;;;;20.53;96.42;98081.97;5034127;28;20173;-57
2022/06/24 05:21:56;;;;;;;3.20;2.88;;;;;;;20.69;96.02;98081.81;5033776;28;20174;-58
2022/06/24 05:24:22;;;;;;;3.50;3.20;;;;;;;20.81;96.21;98085.69;5033683;28;20177;-58
2022/06/24 05:26:47;;;;;;;3.47;3.17;;;;;;;20.98;95.74;98092.47;5033702;28;20170;-58
2022/06/24 05:29:13;;;;;;;2.83;2.63;;;;;;;21.17;92.88;98106.94;5034189;28;20165;-58
2022/06/24 05:31:38;;;;;;;3.75;3.33;;;;;;;21.26;94.33;98106.69;5033839;28;20247;-58
2022/06/24 05:34:04;;;;;;;7.07;3.45;;;;;;;21.29;95.43;98110.78;5034645;28;20264;-58
2022/06/24 05:36:30;;;;;;;8.82;3.40;;;;;;;21.29;95.47;98123.94;5033635;28;20686;-58
2022/06/24 05:38:56;;;;;;;3.55;3.03;;;;;;;21.50;92.25;98121.44;5033752;28;20178;-58
2022/06/24 05:41:22;;;;;;;11.77;5.00;;;;;;;21.69;96.23;98123.56;5033350;28;20268;-57
2022/06/24 05:43:48;;;;;;;8.63;4.55;;;;;;;21.92;94.54;98125.09;5033297;28;20173;-57
2022/06/24 05:46:13;;;;;;;11.52;5.85;;;;;;;22.14;95.50;98118.09;5032088;28;20174;-58
2022/06/24 05:48:40;;;;;;;15.05;5.97;;;;;;;22.37;96.03;98119.56;5033248;28;20209;-57
2022/06/24 05:51:10;;;;;;;12.65;5.78;;;;;;;22.58;93.95;98124.09;5032454;28;20669;-57
2022/06/24 05:56:20;;;;;;;11.50;5.57;;;;;;;22.88;90.66;98117.69;5033094;28;20263;-58
2022/06/24 05:58:46;;;;;;;15.98;5.15;;;;;;;22.98;90.65;98124.31;5033359;28;20694;-58
2022/06/24 06:01:11;;;;;;;11.13;5.65;;;;;;;23.04;91.42;98122.72;5032754;28;20243;-58
2022/06/24 06:03:37;;;;;;;11.55;5.80;;;;;;;23.09;91.90;98109.78;5033190;28;20173;-58
2022/06/24 06:06:03;;;;;;;11.65;4.93;;;;;;;23.24;91.39;98113.19;5033152;28;20174;-58
2022/06/24 06:08:28;;;;;;;11.18;4.97;;;;;;;23.34;90.11;98111.84;5032886;28;20661;-58
2022/06/24 06:10:54;;;;;;;6.65;4.57;;;;;;;23.47;89.22;98119.84;5033144;28;20263;-58
2022/06/24 06:13:19;;;;;;;12.00;4.93;;;;;;;23.59;87.22;98120.94;5032738;28;20165;-58
2022/06/24 06:15:45;;;;;;;11.68;5.47;;;;;;;23.67;86.96;98120.81;5033205;28;20197;-58
2022/06/24 06:18:11;;;;;;;9.85;5.28;;;;;;;23.76;85.97;98119.63;5032880;28;20604;-58
2022/06/24 06:20:37;;;;;;;12.30;5.28;;;;;;;23.68;85.39;98120.59;5032842;28;20172;-58
2022/06/24 06:23:03;;;;;;;10.65;4.95;;;;;;;23.78;85.88;98121.06;5032408;28;20177;-58
2022/06/24 06:25:30;;;;;;;25.23;16.55;;;;;;;23.90;85.96;98131.13;5032891;28;20181;-58
2022/06/24 06:27:55;;;;;;;7.28;6.57;;;;;;;23.99;85.83;98146.63;5032593;28;20178;-58
2022/06/24 06:30:20;;;;;;;8.75;6.03;;;;;;;24.09;84.24;98147.91;5033049;28;20520;-58
2022/06/24 06:32:46;;;;;;;9.88;6.72;;;;;;;24.13;83.83;98162.38;5032763;28;20162;-58
2022/06/24 06:35:11;;;;;;;11.45;6.68;;;;;;;24.17;83.54;98166.25;5032408;28;20694;-58
2022/06/24 06:37:37;;;;;;;16.15;7.35;;;;;;;24.21;81.72;98174.63;5032687;28;20249;-58
2022/06/24 06:40:02;;;;;;;12.38;6.18;;;;;;;24.20;80.90;98173.78;5032333;28;20182;-58
2022/06/24 06:42:28;;;;;;;9.38;5.85;;;;;;;24.17;80.15;98176.84;5032346;28;20210;-58
2022/06/24 06:44:55;;;;;;;10.10;5.18;;;;;;;24.07;78.94;98158.88;5032338;28;20641;-58
2022/06/24 06:47:20;;;;;;;6.28;5.15;;;;;;;24.15;79.57;98173.56;5032314;28;20173;-58
2022/06/24 06:49:46;;;;;;;9.68;5.60;;;;;;;24.17;79.63;98182.13;5032248;28;20172;-59
2022/06/24 06:52:11;;;;;;;7.53;5.28;;;;;;;24.21;80.34;98180.69;5032504;28;20174;-59
2022/06/24 06:54:37;;;;;;;5.63;4.50;;;;;;;24.23;80.48;98170.75;5032951;28;20170;-58
2022/06/24 06:57:03;;;;;;;9.40;4.18;;;;;;;24.30;79.97;98166.31;5032047;28;20190;-58
2022/06/24 06:59:28;;;;;;;7.43;4.78;;;;;;;24.34;79.34;98156.97;5032143;28;20177;-58
2022/06/24 07:01:54;;;;;;;6.93;4.13;;;;;;;24.43;78.98;98163.72;5031904;28;20205;-58
2022/06/24 07:04:19;;;;;;;7.72;4.68;;;;;;;24.54;77.54;98162.31;5031780;28;20642;-59
2022/06/24 07:06:46;;;;;;;7.65;4.20;;;;;;;24.64;77.01;98160.16;5030776;28;20177;-58
2022/06/24 07:09:11;;;;;;;7.50;4.75;;;;;;;24.70;77.58;98148.75;5032278;28;20169;-58
2022/06/24 07:11:37;;;;;;;5.38;4.18;;;;;;;24.82;75.53;98148.00;5032035;28;20572;-59
2022/06/24 07:14:02;;;;;;;6.38;4.20;;;;;;;24.89;74.54;98150.63;5031948;28;20264;-59
2022/06/24 07:16:28;;;;;;;8.57;4.53;;;;;;;24.91;74.14;98149.41;5031905;28;20197;-58
2022/06/24 07:18:53;;;;;;;7.88;4.20;;;;;;;24.98;74.59;98163.50;5030697;28;20277;-59
2022/06/24 07:21:19;;;;;;;6.72;4.20;;;;;;;25.03;74.38;98153.09;5031934;28;20299;-58
2022/06/24 07:23:44;;;;;;;5.30;4.03;;;;;;;25.09;75.30;98154.13;5031854;28;20613;-59
2022/06/24 07:26:10;;;;;;;8.73;4.07;;;;;;;25.04;75.18;98154.75;5031882;28;20185;-58
2022/06/24 07:28:35;;;;;;;5.50;4.10;;;;;;;25.11;75.01;98152.91;5031872;28;20195;-58
2022/06/24 07:31:01;;;;;;;9.10;4.40;;;;;;;25.12;75.87;98141.31;5032343;28;20170;-58
2022/06/24 07:33:26;;;;;;;5.30;3.80;;;;;;;25.16;75.77;98133.78;5031772;28;20170;-59
2022/06/24 07:35:52;;;;;;;8.88;4.38;;;;;;;25.17;77.33;98133.56;5031692;28;20586;-58
2022/06/24 07:38:18;;;;;;;5.40;4.00;;;;;;;25.21;78.64;98134.81;5032035;28;20638;-58
2022/06/24 07:40:43;;;;;;;5.75;3.85;;;;;;;25.26;78.10;98132.38;5031735;28;20642;-58
2022/06/24 07:43:08;;;;;;;8.35;4.20;;;;;;;25.17;78.90;98116.84;5032003;28;20631;-59
2022/06/24 07:45:34;;;;;;;8.60;4.35;;;;;;;25.19;78.86;98115.63;5031698;28;20666;-58
2022/06/24 07:48:00;;;;;;;4.85;3.97;;;;;;;25.22;79.17;98109.94;5031902;28;20239;-58
2022/06/24 07:50:25;;;;;;;7.53;4.05;;;;;;;25.37;77.89;98121.16;5031903;28;20650;-58
2022/06/24 07:52:51;;;;;;;4.13;3.63;;;;;;;25.45;77.70;98118.31;5032114;28;20166;-59
2022/06/24 07:58:01;;;;;;;8.45;3.72;;;;;;;25.60;75.04;98118.09;5031914;28;20170;-58
2022/06/24 08:00:27;;;;;;;7.05;3.60;;;;;;;25.60;74.49;98104.84;5031329;28;20193;-58
2022/06/24 08:02:52;;;;;;;4.32;3.92;;;;;;;25.69;73.41;98112.38;5031603;28;20198;-58
2022/06/24 08:05:17;;;;;;;6.10;3.78;;;;;;;25.78;74.59;98116.41;5031749;28;20162;-58
2022/06/24 08:07:44;;;;;;;7.68;3.90;;;;;;;25.67;73.96;98109.09;5031750;28;20633;-58
2022/06/24 08:10:10;;;;;;;5.93;3.95;;;;;;;25.74;73.16;98111.72;5031759;28;20221;-58
2022/06/24 08:12:35;;;;;;;3.80;3.50;;;;;;;25.77;72.03;98104.19;5031405;28;20212;-58
2022/06/24 08:15:01;;;;;;;5.15;3.40;;;;;;;25.86;68.56;98102.13;5032423;28;20197;-58
2022/06/24 08:17:27;;;;;;;4.70;3.38;;;;;;;25.91;68.06;98100.53;5033741;28;20647;-58
2022/06/24 08:19:52;;;;;;;3.63;3.33;;;;;;;25.99;67.80;98108.22;5035249;28;20177;-58
2022/06/24 08:22:19;;;;;;;4.43;3.47;;;;;;;26.04;67.00;98113.72;5034865;28;20170;-58
2022/06/24 08:24:46;;;;;;;3.55;3.25;;;;;;;26.09;66.88;98115.75;5034873;28;20180;-59
2022/06/24 08:27:12;;;;;;;5.95;3.80;;;;;;;26.09;64.67;98116.56;5035126;28;20224;-59
2022/06/24 08:29:37;;;;;;;5.28;2.90;;;;;;;26.12;57.07;98124.09;5034824;28;20256;-58
2022/06/24 08:32:03;;;;;;;3.28;2.90;;;;;;;26.09;58.48;98123.69;5034762;28;20269;-58
2022/06/24 08:34:29;;;;;;;6.25;2.85;;;;;;;26.16;59.68;98125.31;5033383;28;20193;-59
2022/06/24 08:36:54;;;;;;;6.05;3.42;;;;;;;26.30;61.87;98126.88;5034732;28;20573;-59
2022/06/24 08:39:19;;;;;;;8.98;3.67;;;;;;;26.39;60.91;98130.94;5034543;28;20647;-59
2022/06/24 08:41:46;;;;;;;8.00;3.83;;;;;;;26.51;59.93;98129.22;5035100;28;20180;-58
2022/06/24 08:44:12;;;;;;;5.97;3.63;;;;;;;26.57;58.81;98123.09;5033288;28;20174;-58
2022/06/24 08:46:40;;;;;;;4.95;3.10;;;;;;;26.57;58.12;98112.50;5034750;28;20174;-58
2022/06/24 08:49:06;;;;;;;8.48;3.47;;;;;;;26.58;58.16;98116.75;5034364;28;20646;-59
2022/06/24 08:51:34;;;;;;;4.13;3.05;;;;;;;26.60;59.08;98100.63;5034372;28;20178;-59
2022/06/24 08:54:01;;;;;;;4.60;2.97;;;;;;;26.70;55.85;98117.72;5034394;28;20176;-59
2022/06/24 08:56:27;;;;;;;9.85;3.25;;;;;;;26.79;54.69;98121.75;5034546;28;20684;-58
2022/06/24 08:58:54;;;;;;;3.88;2.83;;;;;;;26.81;55.48;98114.38;5034310;28;20174;-59
2022/06/24 09:01:19;;;;;;;5.57;3.00;;;;;;;26.85;54.31;98112.09;5034051;28;20209;-59
2022/06/24 09:03:45;;;;;;;3.08;2.70;;;;;;;26.82;52.25;98118.66;5034185;28;20174;-59
2022/06/24 09:06:12;;;;;;;9.93;3.47;;;;;;;26.65;52.71;98114.88;5034134;28;20166;-58
2022/06/24 09:08:37;;;;;;;3.35;2.75;;;;;;;26.67;54.30;98112.84;5034340;28;20189;-58
2022/06/24 09:11:07;;;;;;;3.42;2.63;;;;;;;26.82;51.49;98116.00;5034028;28;20173;-59
2022/06/24 09:13:42;;;;;;;7.88;3.10;;;;;;;26.96;49.71;98112.25;5034068;28;20702;-59
2022/06/24 09:16:09;;;;;;;4.15;2.40;;;;;;;27.09;47.84;98108.66;5033926;28;20194;-59
2022/06/24 09:18:35;;;;;;;2.40;2.13;;;;;;;27.16;44.95;98118.25;5034102;28;20177;-59
2022/06/24 09:21:00;;;;;;;6.43;1.92;;;;;;;27.12;42.79;98108.25;5033756;28;20176;-58
2022/06/24 09:23:26;;;;;;;2.35;2.20;;;;;;;27.17;43.55;98119.06;5033819;28;20174;-59
2022/06/24 09:25:54;;;;;;;3.47;1.90;;;;;;;27.24;44.56;98119.81;5032072;28;20169;-59
2022/06/24 09:28:30;;;;;;;4.57;2.28;;;;;;;27.33;44.15;98119.31;5033737;28;20173;-58
2022/06/24 09:31:09;;;;;;;5.95;2.50;;;;;;;27.39;44.37;98123.78;5033661;28;20174;-59
2022/06/24 09:33:37;;;;;;;7.43;2.58;;;;;;;27.44;45.34;98123.94;5033940;28;20170;-59
2022/06/24 09:36:05;;;;;;;4.35;2.47;;;;;;;27.50;43.94;98119.56;5033718;28;20205;-58
2022/06/24 09:38:30;;;;;;;5.38;3.17;;;;;;;27.52;47.28;98112.22;5034018;28;20174;-58
2022/06/24 09:41:01;;;;;;;6.95;2.85;;;;;;;27.45;48.48;98112.28;5033470;28;20288;-58
2022/06/24 09:43:32;;;;;;;3.05;2.53;;;;;;;27.41;48.17;98105.75;5033393;28;20707;-59
2022/06/24 09:45:58;;;;;;;6.20;2.88;;;;;;;27.44;48.07;98105.34;5033627;28;20165;-58
2022/06/24 09:48:32;;;;;;;3.38;2.50;;;;;;;27.46;47.22;98105.13;5033520;28;20173;-59
2022/06/24 09:51:03;;;;;;;2.63;2.45;;;;;;;27.51;47.00;98100.75;5032023;28;20326;-59
2022/06/24 09:53:35;;;;;;;7.32;2.83;;;;;;;27.63;45.95;98109.63;5033520;28;20215;-59
2022/06/24 09:56:01;;;;;;;4.78;2.15;;;;;;;27.65;45.70;98112.88;5033090;28;20194;-58
2022/06/24 09:58:27;;;;;;;2.47;2.28;;;;;;;27.69;45.48;98108.75;5031874;28;20177;-58
2022/06/24 10:00:52;;;;;;;5.20;2.47;;;;;;;27.67;43.99;98105.50;5033149;28;20213;-58
2022/06/24 10:03:18;;;;;;;4.90;2.20;;;;;;;27.84;43.48;98101.28;5033334;28;20224;-59
2022/06/24 10:05:51;;;;;;;5.10;2.40;;;;;;;27.81;43.37;98107.03;5032983;28;20427;-59
2022/06/24 10:08:19;;;;;;;5.55;2.35;;;;;;;27.86;43.50;98103.72;5033492;28;20162;-59
2022/06/24 10:10:55;;;;;;;6.72;2.50;;;;;;;27.92;43.79;98098.31;5033441;28;20178;-59
2022/06/24 10:13:24;;;;;;;3.83;2.08;;;;;;;28.12;41.63;98104.22;5032811;28;20185;-59
2022/06/24 10:15:50;;;;;;;4.50;2.35;;;;;;;28.24;41.54;98099.78;5033028;28;20300;-59
2022/06/24 10:18:19;;;;;;;3.58;2.20;;;;;;;28.39;43.04;98102.09;5033056;28;20178;-59
2022/06/24 10:20:46;;;;;;;2.75;1.65;;;;;;;28.54;39.07;98107.81;5032655;28;20571;-59
2022/06/24 10:23:41;;;;;;;2.63;1.92;;;;;;;28.70;39.80;98101.84;5032716;28;20177;-59
2022/06/24 10:26:30;;;;;;;4.75;1.98;;;;;;;28.85;39.41;98105.72;5032855;28;20537;-59
2022/06/24 10:29:04;;;;;;;3.40;2.00;;;;;;;29.06;38.89;98102.56;5032889;28;20173;-58
2022/06/24 10:31:56;;;;;;;1.88;1.77;;;;;;;29.25;36.98;98111.25;5032787;28;20178;-58
2022/06/24 10:34:33;;;;;;;5.88;2.03;;;;;;;29.40;35.82;98108.97;5032797;28;20562;-59
2022/06/24 10:37:00;;;;;;;2.42;1.85;;;;;;;29.48;36.01;98112.09;5032312;28;20271;-59
2022/06/24 10:39:33;;;;;;;2.65;2.03;;;;;;;29.59;36.55;98105.97;5031892;28;20178;-59
2022/06/24 10:42:06;;;;;;;2.35;1.70;;;;;;;29.76;36.74;98109.56;5033097;28;20193;-59
2022/06/24 10:44:33;;;;;;;1.92;1.55;;;;;;;29.93;34.53;98117.66;5032612;28;20162;-59
2022/06/24 10:47:05;;;;;;;2.83;1.80;;;;;;;30.06;33.90;98115.56;5032201;28;20178;-59
2022/06/24 10:52:39;;;;;;;2.38;1.98;;;;;;;30.44;32.53;98117.69;5032766;28;20214;-59
2022/06/24 10:55:29;;;;;;;2.30;1.90;;;;;;;30.63;33.18;98111.09;5032423;28;20174;-59
2022/06/24 10:58:08;;;;;;;2.47;1.95;;;;;;;30.60;33.85;98111.59;5032760;28;20161;-59
2022/06/24 11:00:37;;;;;;;2.88;1.95;;;;;;;30.63;34.10;98103.09;5032089;28;20195;-59
2022/06/24 11:03:02;;;;;;;3.83;2.00;;;;;;;30.69;32.66;98116.34;5032152;28;20654;-59
2022/06/24 11:05:45;;;;;;;2.15;1.73;;;;;;;30.76;31.21;98105.47;5032089;28;20169;-59
2022/06/24 11:08:22;;;;;;;2.03;1.90;;;;;;;30.89;32.31;98106.00;5032054;28;20182;-59
2022/06/24 11:10:48;;;;;;;1.90;1.80;;;;;;;31.05;31.17;98110.56;5032325;28;20634;-59
2022/06/24 11:13:14;;;;;;;1.83;1.40;;;;;;;31.20;30.31;98110.84;5031980;28;20170;-59
2022/06/24 11:15:58;;;;;;;2.28;1.63;;;;;;;31.34;29.96;98116.66;5030655;28;20221;-59
2022/06/24 11:18:32;;;;;;;2.67;1.58;;;;;;;31.51;30.82;98118.28;5032279;28;20219;-59
2022/06/24 11:21:07;;;;;;;1.98;1.60;;;;;;;31.66;29.83;98117.69;5032186;28;20180;-59
2022/06/24 11:23:35;;;;;;;5.40;1.98;;;;;;;31.79;31.09;98134.25;5031281;28;20577;-59
2022/06/24 11:26:06;;;;;;;1.70;1.60;;;;;;;31.96;29.16;98129.69;5031832;28;20176;-59
2022/06/24 11:28:32;;;;;;;2.03;1.80;;;;;;;32.17;29.42;98130.75;5032138;28;20265;-59
2022/06/24 11:31:28;;;;;;;4.45;1.52;;;;;;;32.42;29.32;98123.84;5032098;28;20177;-59
2022/06/24 11:34:03;;;;;;;1.90;1.70;;;;;;;32.59;28.53;98119.22;5031865;28;20166;-59
2022/06/24 11:36:31;;;;;;;1.50;1.40;;;;;;;32.66;28.46;98119.84;5032229;28;20355;-59
2022/06/24 11:38:58;;;;;;;3.58;2.05;;;;;;;32.44;29.45;98120.91;5031702;28;20178;-59
2022/06/24 11:41:35;;;;;;;1.98;1.63;;;;;;;32.13;30.25;98124.28;5031756;28;20174;-60